sensor_id;sensor_type;location;lat;lon;timestamp;temperature;humidity
62904;DHT22;49000;50.698;13.322;2024-01-30T00:02:09;-0.40;99.90
62904;DHT22;49000;50.698;13.322;2024-01-30T00:04:34;0.30;99.90
62904;DHT22;49000;50.698;13.322;2024-01-30T00:07:00;0.20;99.90
62904;DHT22;49000;50.698;13.322;2024-01-30T00:09:25;-0.50;99.90
62904;DHT22;49000;50.698;13.322;2024-01-30T00:11:51;-0.20;99.90
62904;DHT22;49000;50.698;13.322;2024-01-30T00:14:16;0.00;99.90
62904;DHT22;49000;50.698;13.322;2024-01-30T00:16:42;0.00;99.90
62904;DHT22;49000;50.698;13.322;2024-01-30T00:19:07;0.00;99.90
62904;DHT22;49000;50.698;13.322;2024-01-30T00:21:33;-0.40;99.90
62904;DHT22;49000;50.698;13.322;2024-01-30T00:23:59;0.10;99.90
62904;DHT22;49000;50.698;13.322;2024-01-30T00:26:24;0.00;99.90
62904;DHT22;49000;50.698;13.322;2024-01-30T00:28:50;-0.20;99.90
62904;DHT22;49000;50.698;13.322;2024-01-30T00:31:15;-0.10;99.90
62904;DHT22;49000;50.698;13.322;2024-01-30T00:33:41;0.10;99.90
62904;DHT22;49000;50.698;13.322;2024-01-30T00:36:08;-0.10;99.90
62904;DHT22;49000;50.698;13.322;2024-01-30T00:38:34;0.00;99.90
62904;DHT22;49000;50.698;13.322;2024-01-30T00:40:59;0.00;99.90
62904;DHT22;49000;50.698;13.322;2024-01-30T00:43:25;0.00;99.90
62904;DHT22;49000;50.698;13.322;2024-01-30T00:45:51;-0.40;99.90
62904;DHT22;49000;50.698;13.322;2024-01-30T00:48:18;0.00;99.90
62904;DHT22;49000;50.698;13.322;2024-01-30T00:50:43;-0.60;99.90
62904;DHT22;49000;50.698;13.322;2024-01-30T00:53:09;-0.20;99.90
62904;DHT22;49000;50.698;13.322;2024-01-30T00:55:35;0.10;99.90
62904;DHT22;49000;50.698;13.322;2024-01-30T00:58:01;-0.10;99.90
62904;DHT22;49000;50.698;13.322;2024-01-30T01:00:26;-0.10;99.90
62904;DHT22;49000;50.698;13.322;2024-01-30T01:02:55;0.00;99.90
62904;DHT22;49000;50.698;13.322;2024-01-30T01:05:20;-0.10;99.90
62904;DHT22;49000;50.698;13.322;2024-01-30T01:07:46;0.00;99.90
62904;DHT22;49000;50.698;13.322;2024-01-30T01:10:13;-0.40;99.90
62904;DHT22;49000;50.698;13.322;2024-01-30T01:12:39;-0.10;99.90
62904;DHT22;49000;50.698;13.322;2024-01-30T01:15:05;0.00;99.90
62904;DHT22;49000;50.698;13.322;2024-01-30T01:17:31;0.00;99.90
62904;DHT22;49000;50.698;13.322;2024-01-30T01:19:57;0.00;99.90
62904;DHT22;49000;50.698;13.322;2024-01-30T01:22:22;-0.60;99.90
62904;DHT22;49000;50.698;13.322;2024-01-30T01:24:48;-0.20;99.90
62904;DHT22;49000;50.698;13.322;2024-01-30T01:27:13;-0.60;99.90
62904;DHT22;49000;50.698;13.322;2024-01-30T01:29:39;-0.20;99.90
62904;DHT22;49000;50.698;13.322;2024-01-30T01:32:05;-0.10;99.90
62904;DHT22;49000;50.698;13.322;2024-01-30T01:34:30;-0.10;99.90
62904;DHT22;49000;50.698;13.322;2024-01-30T01:36:56;-0.60;99.90
62904;DHT22;49000;50.698;13.322;2024-01-30T01:39:22;-0.50;99.90
62904;DHT22;49000;50.698;13.322;2024-01-30T01:41:49;-0.30;99.90
62904;DHT22;49000;50.698;13.322;2024-01-30T01:44:14;-0.30;99.90
62904;DHT22;49000;50.698;13.322;2024-01-30T01:46:40;-0.60;99.90
62904;DHT22;49000;50.698;13.322;2024-01-30T01:49:06;-0.10;99.90
62904;DHT22;49000;50.698;13.322;2024-01-30T01:51:34;-0.20;99.90
62904;DHT22;49000;50.698;13.322;2024-01-30T01:54:03;-0.20;99.90
62904;DHT22;49000;50.698;13.322;2024-01-30T01:56:29;-0.50;99.90
62904;DHT22;49000;50.698;13.322;2024-01-30T01:59:04;0.00;99.90
62904;DHT22;49000;50.698;13.322;2024-01-30T02:01:32;-0.10;99.90
62904;DHT22;49000;50.698;13.322;2024-01-30T02:03:58;-0.30;99.90
62904;DHT22;49000;50.698;13.322;2024-01-30T02:06:24;-0.50;99.90
62904;DHT22;49000;50.698;13.322;2024-01-30T02:08:50;0.00;99.90
62904;DHT22;49000;50.698;13.322;2024-01-30T02:11:15;-0.50;99.90
62904;DHT22;49000;50.698;13.322;2024-01-30T02:13:42;-0.60;99.90
62904;DHT22;49000;50.698;13.322;2024-01-30T02:16:07;-0.20;99.90
62904;DHT22;49000;50.698;13.322;2024-01-30T02:18:33;0.00;99.90
62904;DHT22;49000;50.698;13.322;2024-01-30T02:21:03;-0.20;99.90
62904;DHT22;49000;50.698;13.322;2024-01-30T02:23:30;-0.30;99.90
62904;DHT22;49000;50.698;13.322;2024-01-30T02:25:56;0.00;99.90
62904;DHT22;49000;50.698;13.322;2024-01-30T02:28:21;-0.10;99.90
62904;DHT22;49000;50.698;13.322;2024-01-30T02:30:47;-0.70;99.90
62904;DHT22;49000;50.698;13.322;2024-01-30T02:33:13;-0.30;99.90
62904;DHT22;49000;50.698;13.322;2024-01-30T02:35:38;-0.20;99.90
62904;DHT22;49000;50.698;13.322;2024-01-30T02:38:04;-0.30;99.90
62904;DHT22;49000;50.698;13.322;2024-01-30T02:40:30;-0.20;99.90
62904;DHT22;49000;50.698;13.322;2024-01-30T02:42:56;-0.20;99.90
62904;DHT22;49000;50.698;13.322;2024-01-30T02:45:21;-0.20;99.90
62904;DHT22;49000;50.698;13.322;2024-01-30T02:47:47;-0.20;99.90
62904;DHT22;49000;50.698;13.322;2024-01-30T02:50:13;-0.20;99.90
62904;DHT22;49000;50.698;13.322;2024-01-30T02:52:39;-0.10;99.90
62904;DHT22;49000;50.698;13.322;2024-01-30T02:55:05;-0.60;99.90
62904;DHT22;49000;50.698;13.322;2024-01-30T02:57:31;-0.20;99.90
62904;DHT22;49000;50.698;13.322;2024-01-30T02:59:56;-0.20;99.90
62904;DHT22;49000;50.698;13.322;2024-01-30T03:02:21;-0.20;99.90
62904;DHT22;49000;50.698;13.322;2024-01-30T03:04:47;-0.20;99.90
62904;DHT22;49000;50.698;13.322;2024-01-30T03:07:12;-0.20;99.90
62904;DHT22;49000;50.698;13.322;2024-01-30T03:09:38;-0.40;99.90
62904;DHT22;49000;50.698;13.322;2024-01-30T03:12:04;-0.70;99.90
62904;DHT22;49000;50.698;13.322;2024-01-30T03:14:31;-0.20;99.90
62904;DHT22;49000;50.698;13.322;2024-01-30T03:16:57;-0.10;99.90
62904;DHT22;49000;50.698;13.322;2024-01-30T03:19:22;-0.40;99.90
62904;DHT22;49000;50.698;13.322;2024-01-30T03:21:48;-0.40;99.90
62904;DHT22;49000;50.698;13.322;2024-01-30T03:24:13;-0.10;99.90
62904;DHT22;49000;50.698;13.322;2024-01-30T03:26:39;-0.80;99.90
62904;DHT22;49000;50.698;13.322;2024-01-30T03:29:04;-0.20;99.90
62904;DHT22;49000;50.698;13.322;2024-01-30T03:31:30;-0.10;1.00
62904;DHT22;49000;50.698;13.322;2024-01-30T03:33:55;-0.60;1.00
62904;DHT22;49000;50.698;13.322;2024-01-30T03:36:21;-0.20;1.00
62904;DHT22;49000;50.698;13.322;2024-01-30T03:38:46;-0.30;1.00
62904;DHT22;49000;50.698;13.322;2024-01-30T03:41:12;-0.20;1.00
62904;DHT22;49000;50.698;13.322;2024-01-30T03:43:37;-0.20;1.00
62904;DHT22;49000;50.698;13.322;2024-01-30T03:46:03;-0.10;1.00
62904;DHT22;49000;50.698;13.322;2024-01-30T03:48:29;-0.20;1.00
62904;DHT22;49000;50.698;13.322;2024-01-30T03:50:54;0.00;1.00
62904;DHT22;49000;50.698;13.322;2024-01-30T03:53:20;-0.20;1.00
62904;DHT22;49000;50.698;13.322;2024-01-30T03:55:45;-0.30;1.00
62904;DHT22;49000;50.698;13.322;2024-01-30T03:58:11;0.00;1.00
62904;DHT22;49000;50.698;13.322;2024-01-30T04:00:36;0.00;1.00
62904;DHT22;49000;50.698;13.322;2024-01-30T04:03:02;-0.10;1.00
62904;DHT22;49000;50.698;13.322;2024-01-30T04:05:27;-0.20;1.00
62904;DHT22;49000;50.698;13.322;2024-01-30T04:07:53;0.10;1.00
62904;DHT22;49000;50.698;13.322;2024-01-30T04:10:18;-0.30;1.00
62904;DHT22;49000;50.698;13.322;2024-01-30T04:12:44;-0.10;1.00
62904;DHT22;49000;50.698;13.322;2024-01-30T04:15:10;-0.50;1.00
62904;DHT22;49000;50.698;13.322;2024-01-30T04:17:35;-0.40;1.00
62904;DHT22;49000;50.698;13.322;2024-01-30T04:20:01;0.10;1.00
62904;DHT22;49000;50.698;13.322;2024-01-30T04:22:26;0.00;1.00
62904;DHT22;49000;50.698;13.322;2024-01-30T04:24:52;-0.50;1.00
62904;DHT22;49000;50.698;13.322;2024-01-30T04:27:17;0.10;1.00
62904;DHT22;49000;50.698;13.322;2024-01-30T04:29:43;0.00;1.00
62904;DHT22;49000;50.698;13.322;2024-01-30T04:32:09;-0.50;1.00
62904;DHT22;49000;50.698;13.322;2024-01-30T04:34:36;0.10;1.00
62904;DHT22;49000;50.698;13.322;2024-01-30T04:37:01;-0.30;1.00
62904;DHT22;49000;50.698;13.322;2024-01-30T04:39:27;-0.30;1.00
62904;DHT22;49000;50.698;13.322;2024-01-30T04:41:52;0.10;1.00
62904;DHT22;49000;50.698;13.322;2024-01-30T04:44:18;-0.50;1.00
62904;DHT22;49000;50.698;13.322;2024-01-30T04:46:44;-0.30;1.00
62904;DHT22;49000;50.698;13.322;2024-01-30T04:49:10;0.00;1.00
62904;DHT22;49000;50.698;13.322;2024-01-30T04:51:36;0.10;1.00
62904;DHT22;49000;50.698;13.322;2024-01-30T04:54:01;0.00;1.00
62904;DHT22;49000;50.698;13.322;2024-01-30T04:56:27;0.20;1.00
62904;DHT22;49000;50.698;13.322;2024-01-30T04:58:52;0.10;1.00
62904;DHT22;49000;50.698;13.322;2024-01-30T05:01:17;-0.30;1.00
62904;DHT22;49000;50.698;13.322;2024-01-30T05:03:43;0.10;1.00
62904;DHT22;49000;50.698;13.322;2024-01-30T05:06:09;-0.10;1.00
62904;DHT22;49000;50.698;13.322;2024-01-30T05:08:34;0.00;1.00
62904;DHT22;49000;50.698;13.322;2024-01-30T05:11:05;0.10;1.00
62904;DHT22;49000;50.698;13.322;2024-01-30T05:13:31;0.10;1.00
62904;DHT22;49000;50.698;13.322;2024-01-30T05:15:57;0.10;1.00
62904;DHT22;49000;50.698;13.322;2024-01-30T05:18:22;0.00;1.00
62904;DHT22;49000;50.698;13.322;2024-01-30T05:20:49;-0.10;1.00
62904;DHT22;49000;50.698;13.322;2024-01-30T05:23:15;0.00;1.00
62904;DHT22;49000;50.698;13.322;2024-01-30T05:25:40;0.00;1.00
62904;DHT22;49000;50.698;13.322;2024-01-30T05:28:06;-0.50;1.00
62904;DHT22;49000;50.698;13.322;2024-01-30T05:30:31;0.10;1.00
62904;DHT22;49000;50.698;13.322;2024-01-30T05:32:57;0.20;1.00
62904;DHT22;49000;50.698;13.322;2024-01-30T05:35:22;-0.20;1.00
62904;DHT22;49000;50.698;13.322;2024-01-30T05:37:48;-0.10;1.00
62904;DHT22;49000;50.698;13.322;2024-01-30T05:40:15;0.10;1.00
62904;DHT22;49000;50.698;13.322;2024-01-30T05:42:41;0.10;1.00
62904;DHT22;49000;50.698;13.322;2024-01-30T05:45:06;-0.40;1.00
62904;DHT22;49000;50.698;13.322;2024-01-30T05:47:33;0.00;1.00
62904;DHT22;49000;50.698;13.322;2024-01-30T05:49:58;0.00;1.00
62904;DHT22;49000;50.698;13.322;2024-01-30T05:52:24;0.30;1.00
62904;DHT22;49000;50.698;13.322;2024-01-30T05:54:49;-0.30;1.00
62904;DHT22;49000;50.698;13.322;2024-01-30T05:57:14;0.20;1.00
62904;DHT22;49000;50.698;13.322;2024-01-30T05:59:40;0.20;1.00
62904;DHT22;49000;50.698;13.322;2024-01-30T06:02:05;0.10;1.00
62904;DHT22;49000;50.698;13.322;2024-01-30T06:04:31;-0.30;1.00
62904;DHT22;49000;50.698;13.322;2024-01-30T06:06:56;0.00;1.00
62904;DHT22;49000;50.698;13.322;2024-01-30T06:09:22;-0.50;1.00
62904;DHT22;49000;50.698;13.322;2024-01-30T06:11:47;-0.30;1.00
62904;DHT22;49000;50.698;13.322;2024-01-30T06:14:13;-0.50;1.00
62904;DHT22;49000;50.698;13.322;2024-01-30T06:16:38;-0.20;1.00
62904;DHT22;49000;50.698;13.322;2024-01-30T06:19:04;-0.40;1.00
62904;DHT22;49000;50.698;13.322;2024-01-30T06:21:29;-0.10;1.00
62904;DHT22;49000;50.698;13.322;2024-01-30T06:23:56;-0.10;1.00
62904;DHT22;49000;50.698;13.322;2024-01-30T06:26:21;-0.30;1.00
62904;DHT22;49000;50.698;13.322;2024-01-30T06:28:46;-0.60;1.00
62904;DHT22;49000;50.698;13.322;2024-01-30T06:31:12;-0.20;1.00
62904;DHT22;49000;50.698;13.322;2024-01-30T06:33:37;-0.50;1.00
62904;DHT22;49000;50.698;13.322;2024-01-30T06:36:03;-0.40;1.00
62904;DHT22;49000;50.698;13.322;2024-01-30T06:38:28;-0.40;1.00
62904;DHT22;49000;50.698;13.322;2024-01-30T06:40:54;-0.50;1.00
62904;DHT22;49000;50.698;13.322;2024-01-30T06:43:19;-0.40;1.00
62904;DHT22;49000;50.698;13.322;2024-01-30T06:45:45;-0.30;1.00
62904;DHT22;49000;50.698;13.322;2024-01-30T06:48:11;-0.30;1.00
62904;DHT22;49000;50.698;13.322;2024-01-30T06:50:37;-0.90;1.00
62904;DHT22;49000;50.698;13.322;2024-01-30T06:53:02;-0.80;1.00
62904;DHT22;49000;50.698;13.322;2024-01-30T06:55:28;-0.20;1.00
62904;DHT22;49000;50.698;13.322;2024-01-30T06:57:53;-0.20;1.00
62904;DHT22;49000;50.698;13.322;2024-01-30T07:00:19;-0.40;1.00
62904;DHT22;49000;50.698;13.322;2024-01-30T07:02:45;-0.40;1.00
62904;DHT22;49000;50.698;13.322;2024-01-30T07:05:10;-0.40;1.00
62904;DHT22;49000;50.698;13.322;2024-01-30T07:07:36;-0.70;1.00
62904;DHT22;49000;50.698;13.322;2024-01-30T07:10:01;-0.30;1.00
62904;DHT22;49000;50.698;13.322;2024-01-30T07:12:26;-0.30;1.00
62904;DHT22;49000;50.698;13.322;2024-01-30T07:14:52;-0.20;1.00
62904;DHT22;49000;50.698;13.322;2024-01-30T07:17:17;-0.80;1.00
62904;DHT22;49000;50.698;13.322;2024-01-30T07:19:43;-0.30;1.00
62904;DHT22;49000;50.698;13.322;2024-01-30T07:22:09;-0.70;1.00
62904;DHT22;49000;50.698;13.322;2024-01-30T07:24:34;-0.30;1.00
62904;DHT22;49000;50.698;13.322;2024-01-30T07:27:00;-0.60;1.00
62904;DHT22;49000;50.698;13.322;2024-01-30T07:29:25;-0.20;1.00
62904;DHT22;49000;50.698;13.322;2024-01-30T07:31:51;0.00;1.00
62904;DHT22;49000;50.698;13.322;2024-01-30T07:34:16;-0.50;1.00
62904;DHT22;49000;50.698;13.322;2024-01-30T07:36:42;0.10;1.00
62904;DHT22;49000;50.698;13.322;2024-01-30T07:39:07;-0.30;1.00
62904;DHT22;49000;50.698;13.322;2024-01-30T07:41:33;0.00;1.00
62904;DHT22;49000;50.698;13.322;2024-01-30T07:43:58;-0.10;1.00
62904;DHT22;49000;50.698;13.322;2024-01-30T07:46:24;0.20;1.00
62904;DHT22;49000;50.698;13.322;2024-01-30T07:48:49;0.20;1.00
62904;DHT22;49000;50.698;13.322;2024-01-30T07:51:14;0.10;1.00
62904;DHT22;49000;50.698;13.322;2024-01-30T07:53:40;0.30;1.00
62904;DHT22;49000;50.698;13.322;2024-01-30T07:56:06;-0.10;1.00
62904;DHT22;49000;50.698;13.322;2024-01-30T07:58:32;0.50;1.00
62904;DHT22;49000;50.698;13.322;2024-01-30T08:00:58;0.50;1.00
62904;DHT22;49000;50.698;13.322;2024-01-30T08:03:24;0.70;1.00
62904;DHT22;49000;50.698;13.322;2024-01-30T08:05:49;0.60;1.00
62904;DHT22;49000;50.698;13.322;2024-01-30T08:08:15;0.90;1.00
62904;DHT22;49000;50.698;13.322;2024-01-30T08:10:40;0.50;1.00
62904;DHT22;49000;50.698;13.322;2024-01-30T08:13:06;0.70;1.00
62904;DHT22;49000;50.698;13.322;2024-01-30T08:15:31;0.80;1.00
62904;DHT22;49000;50.698;13.322;2024-01-30T08:17:57;1.00;1.00
62904;DHT22;49000;50.698;13.322;2024-01-30T08:20:24;1.00;1.00
62904;DHT22;49000;50.698;13.322;2024-01-30T08:22:50;0.70;1.00
62904;DHT22;49000;50.698;13.322;2024-01-30T08:25:16;0.50;1.00
62904;DHT22;49000;50.698;13.322;2024-01-30T08:27:41;1.20;1.00
62904;DHT22;49000;50.698;13.322;2024-01-30T08:30:07;1.10;1.00
62904;DHT22;49000;50.698;13.322;2024-01-30T08:32:33;1.30;1.00
62904;DHT22;49000;50.698;13.322;2024-01-30T08:34:59;1.30;1.00
62904;DHT22;49000;50.698;13.322;2024-01-30T08:37:24;1.40;1.00
62904;DHT22;49000;50.698;13.322;2024-01-30T08:39:50;1.50;1.00
62904;DHT22;49000;50.698;13.322;2024-01-30T08:42:15;1.50;1.00
62904;DHT22;49000;50.698;13.322;2024-01-30T08:44:43;1.60;1.00
62904;DHT22;49000;50.698;13.322;2024-01-30T08:47:09;1.40;1.00
62904;DHT22;49000;50.698;13.322;2024-01-30T08:49:34;1.60;1.00
62904;DHT22;49000;50.698;13.322;2024-01-30T08:52:00;1.40;1.00
62904;DHT22;49000;50.698;13.322;2024-01-30T08:54:26;1.90;1.00
62904;DHT22;49000;50.698;13.322;2024-01-30T08:56:52;1.70;99.90
62904;DHT22;49000;50.698;13.322;2024-01-30T08:59:18;1.70;99.90
62904;DHT22;49000;50.698;13.322;2024-01-30T09:01:44;1.90;99.90
62904;DHT22;49000;50.698;13.322;2024-01-30T09:04:09;2.30;99.90
62904;DHT22;49000;50.698;13.322;2024-01-30T09:06:35;2.30;99.90
62904;DHT22;49000;50.698;13.322;2024-01-30T09:09:00;2.70;99.90
62904;DHT22;49000;50.698;13.322;2024-01-30T09:11:26;2.50;99.90
62904;DHT22;49000;50.698;13.322;2024-01-30T09:13:52;2.30;99.90
62904;DHT22;49000;50.698;13.322;2024-01-30T09:16:17;2.80;99.90
62904;DHT22;49000;50.698;13.322;2024-01-30T09:18:43;2.80;99.90
62904;DHT22;49000;50.698;13.322;2024-01-30T09:21:08;3.00;99.90
62904;DHT22;49000;50.698;13.322;2024-01-30T09:23:35;3.00;99.90
62904;DHT22;49000;50.698;13.322;2024-01-30T09:26:00;3.10;99.90
62904;DHT22;49000;50.698;13.322;2024-01-30T09:28:25;2.90;1.00
62904;DHT22;49000;50.698;13.322;2024-01-30T09:30:51;3.40;1.00
62904;DHT22;49000;50.698;13.322;2024-01-30T09:33:17;3.40;1.00
62904;DHT22;49000;50.698;13.322;2024-01-30T09:35:42;4.00;1.00
62904;DHT22;49000;50.698;13.322;2024-01-30T09:38:08;4.10;1.00
62904;DHT22;49000;50.698;13.322;2024-01-30T09:40:33;3.90;1.00
62904;DHT22;49000;50.698;13.322;2024-01-30T09:42:59;4.10;1.00
62904;DHT22;49000;50.698;13.322;2024-01-30T09:45:27;4.00;1.00
62904;DHT22;49000;50.698;13.322;2024-01-30T09:47:53;4.20;1.00
62904;DHT22;49000;50.698;13.322;2024-01-30T09:50:20;4.80;1.00
62904;DHT22;49000;50.698;13.322;2024-01-30T09:52:46;4.70;1.00
62904;DHT22;49000;50.698;13.322;2024-01-30T09:55:12;4.90;99.90
62904;DHT22;49000;50.698;13.322;2024-01-30T09:57:38;5.00;1.00
62904;DHT22;49000;50.698;13.322;2024-01-30T10:00:05;5.20;99.90
62904;DHT22;49000;50.698;13.322;2024-01-30T10:02:34;5.70;99.90
62904;DHT22;49000;50.698;13.322;2024-01-30T10:05:00;5.30;99.90
62904;DHT22;49000;50.698;13.322;2024-01-30T10:07:25;6.00;99.90
62904;DHT22;49000;50.698;13.322;2024-01-30T10:09:52;5.80;99.90
62904;DHT22;49000;50.698;13.322;2024-01-30T10:12:18;6.00;99.90
62904;DHT22;49000;50.698;13.322;2024-01-30T10:14:44;5.90;99.90
62904;DHT22;49000;50.698;13.322;2024-01-30T10:17:10;6.10;99.90
62904;DHT22;49000;50.698;13.322;2024-01-30T10:19:38;5.90;99.90
62904;DHT22;49000;50.698;13.322;2024-01-30T10:22:04;5.80;99.90
62904;DHT22;49000;50.698;13.322;2024-01-30T10:24:29;6.00;99.90
62904;DHT22;49000;50.698;13.322;2024-01-30T10:26:55;6.20;99.90
62904;DHT22;49000;50.698;13.322;2024-01-30T10:29:21;6.60;99.90
62904;DHT22;49000;50.698;13.322;2024-01-30T10:32:03;6.70;1.00
62904;DHT22;49000;50.698;13.322;2024-01-30T10:34:30;6.80;99.90
62904;DHT22;49000;50.698;13.322;2024-01-30T10:37:09;6.80;99.90
62904;DHT22;49000;50.698;13.322;2024-01-30T10:39:39;6.90;99.90
62904;DHT22;49000;50.698;13.322;2024-01-30T10:42:05;6.70;99.90
62904;DHT22;49000;50.698;13.322;2024-01-30T10:44:39;6.80;99.90
62904;DHT22;49000;50.698;13.322;2024-01-30T10:47:12;7.30;99.90
62904;DHT22;49000;50.698;13.322;2024-01-30T10:49:41;7.30;99.90
62904;DHT22;49000;50.698;13.322;2024-01-30T10:52:09;7.40;99.90
62904;DHT22;49000;50.698;13.322;2024-01-30T10:54:35;7.40;99.90
62904;DHT22;49000;50.698;13.322;2024-01-30T10:57:01;7.40;99.90
62904;DHT22;49000;50.698;13.322;2024-01-30T10:59:29;7.50;99.90
62904;DHT22;49000;50.698;13.322;2024-01-30T11:01:57;7.50;99.90
62904;DHT22;49000;50.698;13.322;2024-01-30T11:04:23;7.60;99.90
62904;DHT22;49000;50.698;13.322;2024-01-30T11:06:49;7.80;99.90
62904;DHT22;49000;50.698;13.322;2024-01-30T11:09:17;7.90;99.90
62904;DHT22;49000;50.698;13.322;2024-01-30T11:11:56;8.00;99.90
62904;DHT22;49000;50.698;13.322;2024-01-30T11:14:25;8.00;99.90
62904;DHT22;49000;50.698;13.322;2024-01-30T11:16:51;8.00;99.90
62904;DHT22;49000;50.698;13.322;2024-01-30T11:19:23;8.00;99.90
62904;DHT22;49000;50.698;13.322;2024-01-30T11:21:50;8.00;99.90
62904;DHT22;49000;50.698;13.322;2024-01-30T11:24:19;8.00;99.90
62904;DHT22;49000;50.698;13.322;2024-01-30T11:26:45;8.00;99.90
62904;DHT22;49000;50.698;13.322;2024-01-30T11:29:13;8.20;99.90
62904;DHT22;49000;50.698;13.322;2024-01-30T11:31:39;8.40;99.90
62904;DHT22;49000;50.698;13.322;2024-01-30T11:34:05;8.50;99.90
62904;DHT22;49000;50.698;13.322;2024-01-30T11:36:32;8.60;99.90
62904;DHT22;49000;50.698;13.322;2024-01-30T11:39:00;8.40;99.90
62904;DHT22;49000;50.698;13.322;2024-01-30T11:41:25;8.40;99.90
62904;DHT22;49000;50.698;13.322;2024-01-30T11:43:52;8.40;99.90
62904;DHT22;49000;50.698;13.322;2024-01-30T11:46:18;8.40;99.90
62904;DHT22;49000;50.698;13.322;2024-01-30T11:48:43;8.40;99.90
62904;DHT22;49000;50.698;13.322;2024-01-30T11:51:09;8.40;99.90
62904;DHT22;49000;50.698;13.322;2024-01-30T11:53:34;8.40;99.90
62904;DHT22;49000;50.698;13.322;2024-01-30T11:56:00;8.40;99.90
62904;DHT22;49000;50.698;13.322;2024-01-30T11:58:25;8.50;99.90
62904;DHT22;49000;50.698;13.322;2024-01-30T12:00:55;8.60;99.90
62904;DHT22;49000;50.698;13.322;2024-01-30T12:03:21;8.60;99.90
62904;DHT22;49000;50.698;13.322;2024-01-30T12:05:47;8.60;99.90
62904;DHT22;49000;50.698;13.322;2024-01-30T12:08:20;8.60;99.90
62904;DHT22;49000;50.698;13.322;2024-01-30T12:10:45;8.60;99.90
62904;DHT22;49000;50.698;13.322;2024-01-30T12:13:11;8.50;99.90
62904;DHT22;49000;50.698;13.322;2024-01-30T12:15:36;8.50;99.90
62904;DHT22;49000;50.698;13.322;2024-01-30T12:18:06;8.50;99.90
62904;DHT22;49000;50.698;13.322;2024-01-30T12:20:32;8.50;99.90
62904;DHT22;49000;50.698;13.322;2024-01-30T12:22:57;8.40;99.90
62904;DHT22;49000;50.698;13.322;2024-01-30T12:25:23;8.50;99.90
62904;DHT22;49000;50.698;13.322;2024-01-30T12:27:49;8.70;99.90
62904;DHT22;49000;50.698;13.322;2024-01-30T12:30:16;8.90;99.90
62904;DHT22;49000;50.698;13.322;2024-01-30T12:32:44;9.10;99.90
62904;DHT22;49000;50.698;13.322;2024-01-30T12:35:10;9.20;99.90
62904;DHT22;49000;50.698;13.322;2024-01-30T12:37:36;9.30;99.90
62904;DHT22;49000;50.698;13.322;2024-01-30T12:40:02;9.40;99.90
62904;DHT22;49000;50.698;13.322;2024-01-30T12:42:28;9.30;99.90
62904;DHT22;49000;50.698;13.322;2024-01-30T12:44:53;9.20;99.90
62904;DHT22;49000;50.698;13.322;2024-01-30T12:47:21;9.10;99.90
62904;DHT22;49000;50.698;13.322;2024-01-30T12:49:47;9.10;99.90
62904;DHT22;49000;50.698;13.322;2024-01-30T12:52:15;9.20;99.90
62904;DHT22;49000;50.698;13.322;2024-01-30T12:54:41;9.30;99.90
62904;DHT22;49000;50.698;13.322;2024-01-30T12:57:07;9.20;99.90
62904;DHT22;49000;50.698;13.322;2024-01-30T12:59:32;9.30;99.90
62904;DHT22;49000;50.698;13.322;2024-01-30T13:02:00;9.30;99.90
62904;DHT22;49000;50.698;13.322;2024-01-30T13:04:27;9.30;99.90
62904;DHT22;49000;50.698;13.322;2024-01-30T13:06:53;9.40;99.90
62904;DHT22;49000;50.698;13.322;2024-01-30T13:09:18;9.40;99.90
62904;DHT22;49000;50.698;13.322;2024-01-30T13:11:44;9.50;99.90
62904;DHT22;49000;50.698;13.322;2024-01-30T13:14:09;9.70;99.90
62904;DHT22;49000;50.698;13.322;2024-01-30T13:16:35;9.80;99.90
62904;DHT22;49000;50.698;13.322;2024-01-30T13:19:00;9.90;99.90
62904;DHT22;49000;50.698;13.322;2024-01-30T13:21:27;9.90;99.90
62904;DHT22;49000;50.698;13.322;2024-01-30T13:23:53;10.00;99.90
62904;DHT22;49000;50.698;13.322;2024-01-30T13:26:22;10.00;99.90
62904;DHT22;49000;50.698;13.322;2024-01-30T13:28:48;10.00;99.90
62904;DHT22;49000;50.698;13.322;2024-01-30T13:31:17;9.90;99.90
62904;DHT22;49000;50.698;13.322;2024-01-30T13:33:44;9.80;99.90
62904;DHT22;49000;50.698;13.322;2024-01-30T13:36:10;9.80;99.90
62904;DHT22;49000;50.698;13.322;2024-01-30T13:38:36;9.70;99.90
62904;DHT22;49000;50.698;13.322;2024-01-30T13:41:02;9.50;99.90
62904;DHT22;49000;50.698;13.322;2024-01-30T13:43:28;9.30;99.90
62904;DHT22;49000;50.698;13.322;2024-01-30T13:45:54;9.10;99.90
62904;DHT22;49000;50.698;13.322;2024-01-30T13:48:19;9.00;99.90
62904;DHT22;49000;50.698;13.322;2024-01-30T13:50:45;8.90;99.90
62904;DHT22;49000;50.698;13.322;2024-01-30T13:53:11;8.80;99.90
62904;DHT22;49000;50.698;13.322;2024-01-30T13:55:36;8.70;99.90
62904;DHT22;49000;50.698;13.322;2024-01-30T13:58:02;8.60;99.90
62904;DHT22;49000;50.698;13.322;2024-01-30T14:00:27;8.40;99.90
62904;DHT22;49000;50.698;13.322;2024-01-30T14:02:53;8.40;99.90
62904;DHT22;49000;50.698;13.322;2024-01-30T14:05:23;8.40;99.90
62904;DHT22;49000;50.698;13.322;2024-01-30T14:07:50;8.30;99.90
62904;DHT22;49000;50.698;13.322;2024-01-30T14:10:16;8.20;99.90
62904;DHT22;49000;50.698;13.322;2024-01-30T14:12:44;8.20;99.90
62904;DHT22;49000;50.698;13.322;2024-01-30T14:15:11;8.10;99.90
62904;DHT22;49000;50.698;13.322;2024-01-30T14:17:37;8.00;99.90
62904;DHT22;49000;50.698;13.322;2024-01-30T14:20:03;8.00;99.90
62904;DHT22;49000;50.698;13.322;2024-01-30T14:22:33;7.80;99.90
62904;DHT22;49000;50.698;13.322;2024-01-30T14:25:00;7.50;99.90
62904;DHT22;49000;50.698;13.322;2024-01-30T14:27:25;7.10;99.90
62904;DHT22;49000;50.698;13.322;2024-01-30T14:29:51;7.40;99.90
62904;DHT22;49000;50.698;13.322;2024-01-30T14:32:16;7.10;99.90
62904;DHT22;49000;50.698;13.322;2024-01-30T14:34:42;7.00;99.90
62904;DHT22;49000;50.698;13.322;2024-01-30T14:37:07;6.90;99.90
62904;DHT22;49000;50.698;13.322;2024-01-30T14:39:33;7.00;99.90
62904;DHT22;49000;50.698;13.322;2024-01-30T14:41:59;6.80;99.90
62904;DHT22;49000;50.698;13.322;2024-01-30T14:44:25;6.80;99.90
62904;DHT22;49000;50.698;13.322;2024-01-30T14:46:50;6.70;99.90
62904;DHT22;49000;50.698;13.322;2024-01-30T14:49:16;6.70;99.90
62904;DHT22;49000;50.698;13.322;2024-01-30T14:51:42;7.10;99.90
62904;DHT22;49000;50.698;13.322;2024-01-30T14:54:08;6.40;99.90
62904;DHT22;49000;50.698;13.322;2024-01-30T14:56:34;6.40;99.90
62904;DHT22;49000;50.698;13.322;2024-01-30T14:59:00;6.40;99.90
62904;DHT22;49000;50.698;13.322;2024-01-30T15:01:26;5.80;99.90
62904;DHT22;49000;50.698;13.322;2024-01-30T15:03:51;5.90;99.90
62904;DHT22;49000;50.698;13.322;2024-01-30T15:06:17;6.00;99.90
62904;DHT22;49000;50.698;13.322;2024-01-30T15:08:43;5.80;99.90
62904;DHT22;49000;50.698;13.322;2024-01-30T15:11:09;5.50;99.90
62904;DHT22;49000;50.698;13.322;2024-01-30T15:13:35;5.30;99.90
62904;DHT22;49000;50.698;13.322;2024-01-30T15:16:02;5.00;99.90
62904;DHT22;49000;50.698;13.322;2024-01-30T15:18:28;5.30;99.90
62904;DHT22;49000;50.698;13.322;2024-01-30T15:20:54;5.00;99.90
62904;DHT22;49000;50.698;13.322;2024-01-30T15:23:19;5.30;99.90
62904;DHT22;49000;50.698;13.322;2024-01-30T15:25:44;5.00;99.90